Aérodrome :
LOGIN :

S'inscrire | Disclaimer

   EN    FR    IT 

 










Légende :    VFR   VFR Marginal   IFR   IFR Intensif   IFR Très Intensif
Visi : 
Plafond : 
>= 8 km
>= 3000ft
5 à 8 km
1000 à 3000 ft
1500m à 5 km
500 à 1000 ft
800 à 1500m
200 à 500 ft
< 800m
< 200 ft
Symboles :   Orages  Brouillard  Fortes neiges  Fortes précipitations  Vent > 20 kt
SIGMETs :   Divers  Orages  Givrage  Turbulence  Onde Orograph.  Cendres Volcan.






- Altitude de l'aérodrome : 485 ft
- Code IATA : QSA


LELL - Sabadell

DERNIER METAR :
  • 030130Z AUTO 29004KT 240V320 CAVOK 07/06 Q1013

METARs EXPIRÉS :
  • 030100Z AUTO 28005KT CAVOK 07/06 Q1013
  • 030030Z AUTO 29004KT CAVOK 07/06 Q1014
  • 030000Z AUTO 30003KT CAVOK 08/06 Q1014
  • 022300Z AUTO VRB02KT CAVOK 09/07 Q1013

TAF TAF LELL
Valide du 02 à 15h jusqu'au 03 à 15h UTC


021400Z 0215/0315 06010KT 9999 SCT040 TX17/0313Z TN06/0306Z
PROB30
TEMPO 0218/0224 RA BKN040
BECMG 0219/0221 VRB04KT
BECMG 0307/0309 27008KT



MET'MAP, la Météo Aéronautique d'un coup d'oeil ! - Copyright ORBIFLY Décembre 2007 - Disclaimer

ORBIFLY MET'MAP TEAM :

Programmation & Développement : Alexandra Zaïnal
Sur une idée originale de : Baudouin d'Aumeries
Assistance à la programmation : Marc-Olivier Méhu
Soutien technique & logistique : Manuel Goepfert

Contact : metmap@orbifly.com




SOURCES & CREDITS :

   NOAA